Snyder, Missouri
Current Conditions -  °F | °C
As of 11:15 AM on Friday 24 Oct 2014 (Local Time) from KVER Reporting Station
Overcast Overcast  
Wind Chill: 65°   Ceiling: 4300
Heat Index: 65°   Visibility: 10mi
Dew Point: 60°   Wind: 8mph
Humidity: 83%   Direction: 180°S
Pressure: 30.08"   Gusts: NA
Location:  39.5082°N, 93.2104°W
Report Text: KVER 241615Z AUTO 18007KT 10SM SCT029 OVC043 18/15 A3008 RMK AO2 T01830154
Loading
Personal Weather Stations






























Interactive Weather Map New forecast layout! Learn more

10-Day Weather Forecast

Advertisements
Track Severe Weather on mobile